createdAt,value
2022-09-20T00:02:56.889Z,101896.69
2022-09-20T00:07:08.443Z,101901.03
2022-09-20T00:11:23.246Z,101910.97
2022-09-20T00:15:34.894Z,101906.19
2022-09-20T00:19:46.444Z,101894.56
2022-09-20T00:23:58.163Z,101900.81
2022-09-20T00:28:10.770Z,101891.28
2022-09-20T00:32:23.538Z,101889.00
2022-09-20T00:36:35.017Z,101891.06
2022-09-20T00:40:46.550Z,101901.44
2022-09-20T00:45:24.552Z,101899.34
2022-09-20T00:49:37.834Z,101906.38
2022-09-20T00:53:51.594Z,101905.75
2022-09-20T00:58:03.351Z,101892.06
2022-09-20T01:02:19.701Z,101900.19
2022-09-20T01:06:33.197Z,101891.25
2022-09-20T01:10:44.984Z,101894.81
2022-09-20T01:14:59.125Z,101884.84
2022-09-20T01:19:21.632Z,101888.59
2022-09-20T01:24:00.245Z,101904.97
2022-09-20T01:28:11.899Z,101889.00
2022-09-20T01:32:29.789Z,101891.06
2022-09-20T01:36:51.365Z,101896.47
2022-09-20T01:41:25.351Z,101893.34
2022-09-20T01:45:45.085Z,101897.91
2022-09-20T01:50:21.169Z,101894.63
2022-09-20T01:55:14.657Z,101901.66
2022-09-20T01:59:56.108Z,101889.44
2022-09-20T02:04:16.683Z,101883.19
2022-09-20T02:08:56.133Z,101894.41
2022-09-20T02:13:21.047Z,101895.84
2022-09-20T02:17:59.424Z,101889.00
2022-09-20T02:22:25.087Z,101884.84
2022-09-20T02:27:02.274Z,101894.81
2022-09-20T02:31:51.493Z,101897.50
2022-09-20T02:36:27.884Z,101901.88
2022-09-20T02:40:47.244Z,101892.94
2022-09-20T02:45:26.175Z,101905.59
2022-09-20T02:49:58.161Z,101902.06
2022-09-20T02:54:26.015Z,101882.97
2022-09-20T02:58:59.327Z,101898.94
2022-09-20T03:03:46.786Z,101892.31
2022-09-20T03:08:35.947Z,101901.63
2022-09-20T03:12:57.270Z,101898.94
2022-09-20T03:17:36.551Z,101905.41
2022-09-20T03:22:02.071Z,101887.53
2022-09-20T03:26:28.739Z,101890.88
2022-09-20T03:31:03.627Z,101895.41
2022-09-20T03:35:48.298Z,101905.38
2022-09-20T03:40:22.984Z,101899.72
2022-09-20T03:45:04.018Z,101911.56
2022-09-20T03:49:56.561Z,101908.44
2022-09-20T03:54:33.124Z,101916.09
2022-09-20T03:59:16.935Z,101898.69
2022-09-20T04:03:57.580Z,101913.00
2022-09-20T04:08:40.576Z,101900.34
2022-09-20T04:13:29.430Z,101909.91
2022-09-20T04:18:03.678Z,101915.47
2022-09-20T04:22:16.229Z,101890.94
2022-09-20T04:26:36.203Z,101898.34
2022-09-20T04:30:49.672Z,101907.03
2022-09-20T04:35:41.893Z,101910.72
2022-09-20T04:40:15.099Z,101896.38
2022-09-20T04:44:48.841Z,101915.22
2022-09-20T04:49:41.660Z,101906.25
2022-09-20T04:53:59.309Z,101916.69
2022-09-20T04:58:38.982Z,101930.38
2022-09-20T05:03:29.534Z,101916.88
2022-09-20T05:08:12.264Z,101935.38
2022-09-20T05:12:51.619Z,101918.56
2022-09-20T05:17:15.795Z,101932.28
2022-09-20T05:21:30.767Z,101938.13
2022-09-20T05:26:09.295Z,101937.94
2022-09-20T05:30:45.593Z,101943.13
2022-09-20T05:35:15.492Z,101941.72
2022-09-20T05:39:38.916Z,101934.03
2022-09-20T05:43:53.261Z,101941.72
2022-09-20T05:48:04.712Z,101954.97
2022-09-20T05:52:46.882Z,101956.16
2022-09-20T05:57:12.081Z,101932.88
2022-09-20T06:01:32.690Z,101945.16
2022-09-20T06:06:13.265Z,101949.34
2022-09-20T06:10:31.091Z,101960.00
2022-09-20T06:15:00.055Z,101964.88
2022-09-20T06:19:42.506Z,101969.34
2022-09-20T06:24:00.186Z,101972.38
2022-09-20T06:28:20.986Z,101973.38
2022-09-20T06:32:34.713Z,101973.63
2022-09-20T06:37:12.737Z,101971.75
2022-09-20T06:41:30.547Z,101972.56
2022-09-20T06:45:42.872Z,101987.44
2022-09-20T06:49:55.329Z,101977.13
2022-09-20T06:54:11.381Z,101972.63
2022-09-20T06:58:22.930Z,101988.88
2022-09-20T07:02:34.493Z,101986.88
2022-09-20T07:06:46.073Z,102006.19
2022-09-20T07:10:57.752Z,102020.91
2022-09-20T07:15:09.877Z,102017.22
2022-09-20T07:19:23.369Z,102005.31
2022-09-20T07:23:34.955Z,102003.50
2022-09-20T07:27:49.737Z,102000.81
2022-09-20T07:32:01.541Z,101994.59
2022-09-20T07:36:13.257Z,101998.25
2022-09-20T07:40:26.505Z,102003.63
2022-09-20T07:44:42.253Z,102010.13
2022-09-20T07:48:53.791Z,101999.00
2022-09-20T07:53:05.347Z,102020.38
2022-09-20T07:57:17.040Z,102029.78
2022-09-20T08:01:28.775Z,102038.50
2022-09-20T08:05:40.958Z,102038.44
2022-09-20T08:09:52.522Z,102039.41
2022-09-20T08:14:06.257Z,102041.78
2022-09-20T08:18:18.420Z,102047.16
2022-09-20T08:22:32.092Z,102049.81
2022-09-20T08:26:44.107Z,102056.00
2022-09-20T08:31:05.888Z,102055.34
2022-09-20T08:35:17.620Z,102061.03
2022-09-20T08:44:03.461Z,102062.59
2022-09-20T08:48:17.344Z,102077.88
2022-09-20T08:52:36.938Z,102071.00
2022-09-20T08:56:51.028Z,102076.25
2022-09-20T09:01:03.514Z,102069.06
2022-09-20T09:05:34.440Z,102069.97
2022-09-20T09:09:47.357Z,102062.81
2022-09-20T09:14:31.838Z,102071.34
2022-09-20T09:18:45.732Z,102083.41
2022-09-20T09:23:09.099Z,102089.16
2022-09-20T09:27:21.391Z,102075.03
2022-09-20T09:31:33.600Z,102076.25
2022-09-20T09:35:53.228Z,102068.88
2022-09-20T09:40:16.540Z,102073.94
2022-09-20T09:44:35.503Z,102072.19
2022-09-20T09:48:50.140Z,102072.63
2022-09-20T09:53:09.667Z,102060.84
2022-09-20T09:57:32.981Z,102071.34
2022-09-20T10:02:23.329Z,102079.59
2022-09-20T10:06:52.375Z,102071.31
2022-09-20T10:11:28.527Z,102065.50
2022-09-20T10:15:52.118Z,102078.03
2022-09-20T10:20:31.212Z,102067.81
2022-09-20T10:25:11.579Z,102060.63
2022-09-20T10:29:42.525Z,102057.63
2022-09-20T10:34:12.779Z,102066.44
2022-09-20T10:38:35.845Z,102064.16
2022-09-20T10:43:09.732Z,102057.94
2022-09-20T10:47:31.468Z,102063.03
2022-09-20T10:52:09.253Z,102054.53
2022-09-20T10:56:37.521Z,102057.00
2022-09-20T11:00:52.711Z,102069.00
2022-09-20T11:05:43.428Z,102071.25
2022-09-20T11:10:06.275Z,102054.84
2022-09-20T11:14:33.437Z,102074.00
2022-09-20T11:18:59.251Z,102077.13
2022-09-20T11:23:20.984Z,102074.38
2022-09-20T11:27:51.712Z,102066.03
2022-09-20T11:32:36.618Z,102079.69
2022-09-20T11:36:57.575Z,102067.03
2022-09-20T11:41:12.196Z,102057.78
2022-09-20T11:45:28.309Z,102070.72
2022-09-20T11:49:40.092Z,102069.06
2022-09-20T11:54:38.094Z,102084.09
2022-09-20T11:58:52.027Z,102079.19
2022-09-20T12:03:07.970Z,102070.13
2022-09-20T12:07:24.977Z,102068.09
2022-09-20T12:11:39.216Z,102073.75
2022-09-20T12:16:00.473Z,102055.75
2022-09-20T12:20:42.315Z,102065.88
2022-09-20T12:25:35.855Z,102072.47
2022-09-20T12:29:50.721Z,102067.69
2022-09-20T12:34:11.743Z,102057.22
2022-09-20T12:38:30.363Z,102069.22
2022-09-20T12:42:41.951Z,102061.31
2022-09-20T12:47:00.757Z,102068.75
2022-09-20T12:51:34.140Z,102066.38
2022-09-20T12:56:16.138Z,102068.66
2022-09-20T13:01:02.061Z,102063.69
2022-09-20T13:05:36.190Z,102067.91
2022-09-20T13:09:48.310Z,102060.44
2022-09-20T13:14:11.952Z,102071.19
2022-09-20T13:18:26.168Z,102071.59
2022-09-20T13:22:45.355Z,102071.16
2022-09-20T13:27:19.342Z,102079.59
2022-09-20T13:31:33.725Z,102080.16
2022-09-20T13:35:49.887Z,102079.25
2022-09-20T13:40:02.663Z,102077.28
2022-09-20T13:44:16.928Z,102074.94
2022-09-20T13:48:30.218Z,102065.47
2022-09-20T13:52:47.114Z,102073.59
2022-09-20T13:57:05.055Z,102059.53
2022-09-20T14:01:36.778Z,102063.81
2022-09-20T14:06:11.813Z,102067.47
2022-09-20T14:10:31.626Z,102058.09
2022-09-20T14:14:43.895Z,102059.13
2022-09-20T14:18:57.808Z,102053.47
2022-09-20T14:23:27.537Z,102061.91
2022-09-20T14:27:39.288Z,102057.88
2022-09-20T14:31:50.850Z,102043.78
2022-09-20T14:36:02.366Z,102046.50
2022-09-20T14:40:31.996Z,102042.09
2022-09-20T14:44:49.687Z,102033.81
2022-09-20T14:49:20.336Z,102048.97
2022-09-20T14:53:32.581Z,102048.81
2022-09-20T14:57:46.113Z,102054.09
2022-09-20T15:02:11.439Z,102056.75
2022-09-20T15:06:23.453Z,102054.81
2022-09-20T15:10:35.060Z,102057.78
2022-09-20T15:14:48.238Z,102057.41
2022-09-20T15:18:59.857Z,102048.63
2022-09-20T15:23:11.404Z,102042.91
2022-09-20T15:27:27.543Z,102050.19
2022-09-20T15:31:40.300Z,102045.59
2022-09-20T15:35:51.880Z,102040.06
2022-09-20T15:40:05.617Z,102048.84
2022-09-20T15:44:17.356Z,102047.06
2022-09-20T15:48:30.682Z,102038.00
2022-09-20T15:52:42.451Z,102045.44
2022-09-20T15:56:54.100Z,102050.63
2022-09-20T16:01:08.041Z,102034.22
2022-09-20T16:05:19.867Z,102047.22
2022-09-20T16:09:31.470Z,102050.28
2022-09-20T16:13:43.069Z,102059.59
2022-09-20T16:18:13.382Z,102057.50
2022-09-20T16:22:25.033Z,102064.22
2022-09-20T16:26:37.652Z,102067.16
2022-09-20T16:30:59.503Z,102074.22
2022-09-20T16:35:11.247Z,102072.22
2022-09-20T16:39:28.812Z,102069.63
2022-09-20T16:43:41.277Z,102075.97
2022-09-20T16:47:58.063Z,102082.94
2022-09-20T16:52:11.016Z,102077.38
2022-09-20T16:56:29.567Z,102080.66
2022-09-20T17:00:41.195Z,102085.81
2022-09-20T17:04:52.829Z,102085.81
2022-09-20T17:09:06.210Z,102099.34
2022-09-20T17:13:18.171Z,102098.16
2022-09-20T17:17:29.719Z,102100.19
2022-09-20T17:21:45.172Z,102109.09
2022-09-20T17:26:08.017Z,102107.19
2022-09-20T17:30:19.680Z,102106.94
2022-09-20T17:34:31.694Z,102102.63
2022-09-20T17:38:43.311Z,102113.47
2022-09-20T17:42:55.296Z,102116.06
2022-09-20T17:47:07.354Z,102118.50
2022-09-20T17:51:19.977Z,102139.53
2022-09-20T17:55:31.606Z,102133.00
2022-09-20T17:59:43.269Z,102138.72
2022-09-20T18:03:56.682Z,102132.75
2022-09-20T18:08:08.493Z,102132.00
2022-09-20T18:12:21.564Z,102126.84
2022-09-20T18:16:35.175Z,102154.09
2022-09-20T18:20:47.320Z,102151.59
2022-09-20T18:24:58.954Z,102144.78
2022-09-20T18:29:17.889Z,102164.56
2022-09-20T18:33:32.499Z,102161.66
2022-09-20T18:37:45.654Z,102162.31
2022-09-20T18:41:57.356Z,102166.66
2022-09-20T18:46:11.602Z,102165.44
2022-09-20T18:50:26.475Z,102177.50
2022-09-20T18:54:39.078Z,102184.53
2022-09-20T18:58:53.771Z,102181.41
2022-09-20T19:03:17.882Z,102177.47
2022-09-20T19:07:36.238Z,102187.00
2022-09-20T19:12:00.737Z,102172.22
2022-09-20T19:16:21.057Z,102185.47
2022-09-20T19:20:51.719Z,102201.03
2022-09-20T19:25:18.617Z,102214.91
2022-09-20T19:29:30.766Z,102207.03
2022-09-20T19:33:42.524Z,102216.78
2022-09-20T19:38:15.506Z,102224.66
2022-09-20T19:42:47.605Z,102228.97
2022-09-20T19:47:11.266Z,102232.69
2022-09-20T19:51:23.601Z,102218.31
2022-09-20T19:55:35.490Z,102234.88
2022-09-20T19:59:47.938Z,102230.06
2022-09-20T20:03:59.754Z,102247.88
2022-09-20T20:08:16.300Z,102240.38
2022-09-20T20:12:52.847Z,102238.06
2022-09-20T20:17:29.296Z,102246.97
2022-09-20T20:21:46.979Z,102251.91
2022-09-20T20:26:25.422Z,102236.69
2022-09-20T20:30:39.542Z,102248.50
2022-09-20T20:34:51.107Z,102253.69
2022-09-20T20:39:02.728Z,102257.41
2022-09-20T20:43:14.266Z,102255.94
2022-09-20T20:47:25.796Z,102256.59
2022-09-20T20:51:37.492Z,102262.41
2022-09-20T20:55:49.018Z,102281.16
2022-09-20T21:00:00.790Z,102269.97
2022-09-20T21:04:15.212Z,102277.31
2022-09-20T21:08:49.632Z,102274.41
2022-09-20T21:13:01.501Z,102280.03
2022-09-20T21:17:13.011Z,102286.88
2022-09-20T21:21:26.723Z,102287.34
2022-09-20T21:25:38.280Z,102292.53
2022-09-20T21:29:49.865Z,102279.63
2022-09-20T21:34:01.969Z,102287.59
2022-09-20T21:38:13.522Z,102307.13
2022-09-20T21:42:27.184Z,102301.09
2022-09-20T21:46:40.800Z,102311.91
2022-09-20T21:50:53.126Z,102310.88
2022-09-20T21:55:06.986Z,102299.28
2022-09-20T21:59:20.367Z,102298.69
2022-09-20T22:03:34.204Z,102307.63
2022-09-20T22:07:46.060Z,102304.72
2022-09-20T22:11:57.758Z,102307.22
2022-09-20T22:16:12.674Z,102299.56
2022-09-20T22:20:24.782Z,102296.88
2022-09-20T22:24:36.565Z,102308.94
2022-09-20T22:28:51.940Z,102307.72
2022-09-20T22:33:03.728Z,102313.31
2022-09-20T22:37:16.467Z,102312.88
2022-09-20T22:41:28.404Z,102299.97
2022-09-20T22:45:40.082Z,102304.91
2022-09-20T22:49:51.791Z,102312.19
2022-09-20T22:54:11.899Z,102291.63
2022-09-20T22:58:23.551Z,102297.16
2022-09-20T23:02:35.256Z,102289.63
2022-09-20T23:06:51.889Z,102303.50
2022-09-20T23:11:05.280Z,102297.84
2022-09-20T23:15:17.371Z,102307.72
2022-09-20T23:19:29.073Z,102307.25
2022-09-20T23:23:44.152Z,102305.97
2022-09-20T23:27:55.787Z,102302.53
2022-09-20T23:32:08.027Z,102301.41
2022-09-20T23:36:20.669Z,102311.47
2022-09-20T23:40:33.801Z,102326.78
2022-09-20T23:44:45.560Z,102306.41
2022-09-20T23:48:57.286Z,102312.16
2022-09-20T23:53:08.972Z,102325.25
2022-09-20T23:57:20.617Z,102310.22
